Weather at Rabi Island Airport

Public forecast

Using degrees Celsius for public forecast. Weather courtesy of forecast.io.

Closest aviation weather report (METAR) to Rabi Island Airport

Report is more than 6 hours old.

Closest report is Matei Airport, 12.7 nm (23.5 km) SE. Retrieved 2022/01/18 03:00 UTC (1 day ago):

NFNM 180300Z 13011KT 9999 FEW018 BKN300 31/26 Q1002

Closest aviation forecast (TAF) to Rabi Island Airport

Closest forecast is Nausori International Airport, 121.7 nm (225.4 km) SW. Retrieved 2022/01/19 12:00 UTC (2 hours ago):

TAF NFNA 191110Z 1912/2012 09008KT 9999 SCT020 PROB40 TEMPO 1918/1920 5000 TSRA BKN015 FEW018CB PROB40 TEMPO 2002/2008 5000 TSRA BKN015 FEW018CB